createdAt,value
2023-02-12T10:43:52.964Z,88.76
2023-02-12T10:46:23.772Z,79.24
2023-02-12T10:48:58.874Z,74.96
2023-02-12T10:52:09.556Z,68.79
2023-02-12T10:54:51.456Z,66.09
2023-02-12T10:57:29.771Z,64.37
2023-02-12T11:00:36.654Z,69.55
2023-02-12T11:03:14.159Z,74.64
2023-02-12T11:05:45.885Z,69.21
2023-02-12T11:08:56.619Z,65.33
2023-02-12T11:11:50.307Z,61.62
2023-02-12T11:14:21.395Z,62.29
2023-02-12T11:17:01.595Z,63.35
2023-02-12T11:19:49.571Z,62.29
2023-02-12T11:23:14.862Z,58.61
2023-02-12T11:26:08.191Z,59.83
2023-02-12T11:29:24.568Z,58.65
2023-02-12T11:32:24.097Z,62.41
2023-02-12T11:35:33.688Z,62.64
2023-02-12T11:38:04.364Z,59.27
2023-02-12T11:40:37.914Z,56.93
2023-02-12T11:46:33.854Z,58.43
2023-02-12T11:49:38.512Z,52.95
2023-02-12T11:52:22.250Z,53.88
2023-02-12T11:54:56.566Z,57.29
2023-02-12T11:57:50.539Z,60.36
2023-02-12T12:00:42.933Z,62.68
2023-02-12T12:03:41.139Z,61.77
2023-02-12T12:06:47.646Z,61.25
2023-02-12T12:10:16.221Z,60.86
2023-02-12T12:12:53.030Z,58.11
2023-02-12T12:15:51.487Z,59.25
2023-02-12T12:19:04.921Z,64.34
2023-02-12T12:22:10.034Z,63.95
2023-02-12T12:25:01.665Z,66.20
2023-02-12T12:28:16.743Z,66.55
2023-02-12T12:31:06.741Z,68.22
2023-02-12T12:34:36.690Z,69.39
2023-02-12T12:37:18.321Z,69.21
2023-02-12T12:40:34.425Z,66.40
2023-02-12T12:43:10.871Z,63.56
2023-02-12T12:47:03.001Z,62.31
2023-02-12T12:49:46.858Z,64.03
2023-02-12T12:53:17.891Z,65.01
2023-02-12T12:56:48.571Z,61.20
2023-02-12T12:59:48.297Z,58.66
2023-02-12T13:03:14.218Z,58.19
2023-02-12T13:06:30.602Z,65.37
2023-02-12T13:09:48.177Z,61.54
2023-02-12T13:12:44.721Z,62.30
2023-02-12T13:16:06.862Z,62.65
2023-02-12T13:19:04.368Z,56.60
2023-02-12T13:21:58.913Z,60.06
2023-02-12T13:24:57.219Z,65.32
2023-02-12T13:27:43.792Z,62.11
2023-02-12T13:30:16.955Z,60.91
2023-02-12T13:33:22.896Z,61.40
2023-02-12T13:36:38.438Z,62.68
2023-02-12T13:39:34.393Z,61.83
2023-02-12T13:42:08.328Z,60.75
2023-02-12T13:45:31.652Z,58.03
2023-02-12T13:48:29.342Z,54.25
2023-02-12T13:51:24.679Z,60.64
2023-02-12T13:54:21.135Z,62.99
2023-02-12T13:57:17.820Z,63.54
2023-02-12T14:00:56.078Z,64.86
2023-02-12T14:03:47.356Z,62.29
2023-02-12T14:06:24.945Z,58.61
2023-02-12T14:09:28.006Z,57.28
2023-02-12T14:11:59.769Z,54.62
2023-02-12T14:14:42.954Z,54.91
2023-02-12T14:18:06.973Z,55.58
2023-02-12T14:20:50.479Z,57.03
2023-02-12T14:23:37.422Z,56.25
2023-02-12T14:26:36.904Z,57.38
2023-02-12T14:34:16.634Z,60.04
2023-02-12T14:37:51.558Z,60.14
2023-02-12T14:42:46.090Z,57.41
2023-02-12T14:45:48.749Z,52.88
2023-02-12T14:49:16.609Z,54.67
2023-02-12T14:52:19.155Z,58.77
2023-02-12T14:55:30.003Z,61.48
2023-02-12T14:58:36.132Z,60.32
2023-02-12T15:06:17.319Z,55.78
2023-02-12T15:09:27.554Z,57.21
2023-02-12T15:12:43.052Z,59.78
2023-02-12T15:19:12.809Z,62.54
2023-02-12T15:21:48.948Z,60.62
2023-02-12T15:24:44.556Z,59.56
2023-02-12T15:28:48.722Z,59.94
2023-02-12T15:32:00.450Z,61.63
2023-02-12T16:05:05.463Z,61.78
2023-02-12T16:10:36.079Z,64.39
2023-02-12T16:13:06.133Z,62.58
2023-02-12T16:15:54.919Z,60.89
2023-02-12T16:18:35.906Z,63.60
2023-02-12T16:21:26.181Z,64.20
2023-02-12T16:23:54.562Z,67.08
2023-02-12T16:26:28.555Z,67.88
2023-02-12T16:28:59.526Z,66.63
2023-02-12T16:31:35.212Z,66.30
2023-02-12T16:34:07.253Z,67.43
2023-02-12T16:36:48.870Z,65.96
2023-02-12T16:39:48.393Z,67.70
2023-02-12T16:42:19.172Z,69.97
2023-02-12T16:44:51.745Z,68.97
2023-02-12T16:47:23.157Z,68.04
2023-02-12T16:50:01.017Z,65.43
2023-02-12T16:52:41.263Z,63.59
2023-02-12T16:55:16.984Z,63.69
2023-02-12T16:57:45.180Z,61.00
2023-02-12T17:00:17.505Z,60.25
2023-02-12T17:02:47.100Z,60.55
2023-02-12T17:05:27.193Z,62.51
2023-02-12T17:07:58.885Z,64.24
2023-02-12T17:10:26.659Z,64.27
2023-02-12T17:13:00.983Z,61.33
2023-02-12T17:15:56.171Z,59.02
2023-02-12T17:18:51.072Z,58.86
2023-02-12T17:21:25.723Z,60.59
2023-02-12T17:24:17.383Z,59.58
2023-02-12T17:26:45.338Z,59.91
2023-02-12T17:29:19.339Z,61.71
2023-02-12T17:31:56.178Z,61.03
2023-02-12T17:34:30.198Z,62.16
2023-02-12T17:37:01.765Z,63.38
2023-02-12T17:39:33.636Z,63.06
2023-02-12T17:42:07.591Z,62.11
2023-02-12T17:44:35.316Z,63.44
2023-02-12T17:47:05.397Z,63.67
2023-02-12T17:49:42.801Z,64.90
2023-02-12T17:52:26.272Z,66.72
2023-02-12T17:54:55.907Z,66.15
2023-02-12T17:57:28.042Z,62.89
2023-02-12T17:59:58.945Z,62.87
2023-02-12T18:02:30.358Z,62.13
2023-02-12T18:04:58.196Z,60.46
2023-02-12T18:07:25.882Z,61.35
2023-02-12T18:10:01.126Z,64.27
2023-02-12T18:15:55.875Z,59.92
2023-02-12T18:18:41.419Z,60.38
2023-02-12T18:21:36.096Z,61.22
2023-02-12T18:24:17.012Z,60.38
2023-02-12T18:26:48.407Z,62.21
2023-02-12T18:30:24.336Z,64.08
2023-02-12T18:32:42.514Z,61.40
2023-02-12T18:35:21.061Z,59.34
2023-02-12T18:37:57.222Z,60.26
2023-02-12T18:40:33.171Z,58.15
2023-02-12T18:44:05.839Z,57.24
2023-02-12T18:47:01.157Z,56.57
2023-02-12T18:49:51.377Z,57.61
2023-02-12T18:52:25.641Z,58.30
2023-02-12T18:54:56.353Z,58.07
2023-02-12T18:57:27.090Z,58.11
2023-02-12T19:00:44.968Z,57.21
2023-02-12T19:04:13.092Z,55.96
2023-02-12T19:06:56.442Z,55.29
2023-02-12T19:09:29.009Z,55.80
2023-02-12T19:13:33.669Z,56.84
2023-02-12T19:19:12.866Z,55.88
2023-02-12T19:21:53.249Z,59.79
2023-02-12T19:24:21.449Z,60.14
2023-02-12T19:26:53.102Z,62.54
2023-02-12T19:29:29.018Z,61.74
2023-02-12T19:32:15.162Z,61.21
2023-02-12T19:34:52.665Z,64.02
2023-02-12T19:37:27.985Z,63.62
2023-02-12T19:40:08.244Z,63.19
2023-02-12T19:42:35.962Z,63.32
2023-02-12T19:45:03.953Z,62.84
2023-02-12T19:47:32.253Z,61.87
2023-02-12T19:50:02.262Z,61.80
2023-02-12T19:52:30.294Z,64.13
2023-02-12T19:55:00.807Z,64.91
2023-02-12T19:57:33.478Z,65.63
2023-02-12T20:00:02.886Z,66.82
2023-02-12T20:02:34.560Z,66.51
2023-02-12T20:05:07.186Z,66.63
2023-02-12T20:07:38.847Z,69.74
2023-02-12T20:10:11.409Z,70.00
2023-02-12T20:12:42.104Z,69.32
2023-02-12T20:15:31.551Z,67.48
2023-02-12T20:18:09.483Z,69.13
2023-02-12T20:20:47.739Z,68.01
2023-02-12T20:23:20.467Z,69.00
2023-02-12T20:25:48.506Z,70.16
2023-02-12T20:28:19.195Z,69.87
2023-02-12T20:30:47.888Z,71.76
2023-02-12T20:33:17.209Z,73.58
2023-02-12T20:35:58.280Z,75.13
2023-02-12T20:38:34.762Z,74.02
2023-02-12T20:41:23.881Z,71.62
2023-02-12T20:43:51.953Z,70.95
2023-02-12T20:46:25.566Z,71.69
2023-02-12T20:48:55.689Z,71.29
2023-02-12T20:51:33.702Z,71.17
2023-02-12T20:54:04.662Z,71.47
2023-02-12T20:56:45.320Z,70.26
2023-02-12T20:59:18.942Z,70.96
2023-02-12T21:01:54.984Z,71.42
2023-02-12T21:04:26.785Z,73.19
2023-02-12T21:06:57.505Z,73.06
2023-02-12T21:09:28.007Z,77.19
2023-02-12T21:11:58.601Z,77.92
2023-02-12T21:14:26.827Z,75.80
2023-02-12T21:16:56.537Z,78.03
2023-02-12T21:19:37.018Z,76.59
2023-02-12T21:22:05.154Z,77.85
2023-02-12T21:24:34.200Z,78.94
2023-02-12T21:27:04.932Z,76.51
2023-02-12T21:29:42.816Z,76.09
2023-02-12T21:32:17.425Z,76.57
2023-02-12T21:34:47.538Z,76.43
2023-02-12T21:37:27.054Z,77.12
2023-02-12T21:39:55.043Z,75.43
2023-02-12T21:42:25.344Z,72.58
2023-02-12T21:44:55.897Z,71.69
2023-02-12T21:47:23.845Z,72.42
2023-02-12T21:49:56.427Z,74.01
2023-02-12T21:52:24.413Z,74.90
2023-02-12T21:55:04.191Z,74.81
2023-02-12T21:57:33.805Z,75.22
2023-02-12T22:00:10.831Z,73.42
2023-02-12T22:02:41.212Z,74.83
2023-02-12T22:05:12.489Z,75.42
2023-02-12T22:07:58.943Z,76.65
2023-02-12T22:10:27.687Z,77.40
2023-02-12T22:13:02.889Z,78.00
2023-02-12T22:15:34.036Z,79.77
2023-02-12T22:18:06.706Z,80.89
2023-02-12T22:20:45.224Z,79.26
2023-02-12T22:23:18.094Z,78.73
2023-02-12T22:25:46.180Z,79.23
2023-02-12T22:28:17.013Z,81.18
2023-02-12T22:30:46.980Z,81.79
2023-02-12T22:33:21.709Z,81.18
2023-02-12T22:35:49.774Z,81.67
2023-02-12T22:38:17.634Z,81.60
2023-02-12T22:40:45.632Z,81.33
2023-02-12T22:43:18.302Z,81.60
2023-02-12T22:45:46.443Z,83.44
2023-02-12T22:48:16.875Z,86.91
2023-02-12T22:50:47.917Z,85.72
2023-02-12T22:53:18.258Z,85.60
2023-02-12T22:55:50.469Z,85.09
2023-02-12T22:58:25.869Z,84.53
2023-02-12T23:00:57.820Z,83.23
2023-02-12T23:03:30.362Z,84.81
2023-02-12T23:06:04.560Z,81.18
2023-02-12T23:08:41.512Z,81.79
2023-02-12T23:11:34.444Z,74.52
2023-02-12T23:14:21.881Z,71.68
2023-02-12T23:17:02.944Z,70.91
2023-02-12T23:19:38.838Z,73.92
2023-02-12T23:22:16.877Z,75.57
2023-02-12T23:24:44.677Z,76.82
2023-02-12T23:27:16.129Z,75.71
2023-02-12T23:29:44.168Z,75.66
2023-02-12T23:32:14.550Z,75.82
2023-02-12T23:34:44.890Z,77.43
2023-02-12T23:37:27.520Z,77.86
2023-02-12T23:40:00.618Z,77.40
2023-02-12T23:42:48.994Z,77.28
2023-02-12T23:45:37.234Z,76.40
2023-02-12T23:48:06.214Z,78.47
2023-02-12T23:50:59.354Z,78.96
2023-02-12T23:53:34.792Z,77.56
2023-02-12T23:56:13.914Z,76.51
2023-02-12T23:59:05.792Z,76.45
